createdAt,value
2023-01-04T00:01:22.142Z,6.30
2023-01-04T00:03:50.004Z,6.43
2023-01-04T00:06:19.726Z,7.13
2023-01-04T00:08:47.717Z,5.50
2023-01-04T00:11:17.639Z,5.10
2023-01-04T00:13:45.526Z,10.23
2023-01-04T00:16:16.182Z,4.87
2023-01-04T00:18:44.432Z,6.97
2023-01-04T00:21:14.026Z,9.00
2023-01-04T00:23:43.919Z,7.90
2023-01-04T00:26:13.658Z,9.80
2023-01-04T00:28:41.660Z,10.90
2023-01-04T00:31:11.366Z,5.77
2023-01-04T00:33:39.195Z,8.30
2023-01-04T00:36:08.684Z,3.30
2023-01-04T00:38:36.659Z,4.57
2023-01-04T00:41:06.725Z,9.67
2023-01-04T00:43:34.489Z,5.60
2023-01-04T00:46:07.037Z,3.83
2023-01-04T00:48:40.088Z,4.77
2023-01-04T00:51:08.333Z,6.60
2023-01-04T00:53:35.920Z,4.03
2023-01-04T00:56:05.308Z,6.10
2023-01-04T00:58:32.860Z,16.83
2023-01-04T01:01:06.001Z,4.77
2023-01-04T01:03:38.459Z,5.83
2023-01-04T01:06:08.943Z,4.50
2023-01-04T01:08:37.381Z,4.50
2023-01-04T01:11:07.933Z,4.90
2023-01-04T01:13:36.395Z,5.33
2023-01-04T01:16:05.285Z,6.60
2023-01-04T01:18:33.345Z,5.60
2023-01-04T01:21:00.951Z,8.10
2023-01-04T01:23:28.635Z,5.73
2023-01-04T01:25:56.327Z,6.50
2023-01-04T01:28:25.277Z,10.60
2023-01-04T01:30:52.812Z,6.27
2023-01-04T01:33:20.483Z,5.87
2023-01-04T01:35:48.127Z,5.63
2023-01-04T01:38:15.716Z,9.73
2023-01-04T01:40:43.609Z,4.97
2023-01-04T01:43:18.700Z,4.63
2023-01-04T01:45:48.131Z,5.07
2023-01-04T01:48:18.171Z,7.73
2023-01-04T01:50:48.214Z,3.93
2023-01-04T01:53:16.146Z,4.00
2023-01-04T01:55:44.771Z,6.27
2023-01-04T01:58:15.051Z,5.50
2023-01-04T02:00:42.638Z,6.97
2023-01-04T02:03:18.240Z,6.20
2023-01-04T02:05:46.728Z,5.13
2023-01-04T02:08:14.634Z,7.23
2023-01-04T02:10:42.246Z,6.23
2023-01-04T02:13:13.598Z,8.40
2023-01-04T02:15:50.973Z,7.50
2023-01-04T02:18:26.463Z,4.10
2023-01-04T02:21:00.353Z,7.73
2023-01-04T02:23:57.118Z,2.93
2023-01-04T02:26:58.511Z,4.77
2023-01-04T02:29:59.609Z,7.77
2023-01-04T02:32:37.535Z,3.67
2023-01-04T02:35:11.849Z,5.30
2023-01-04T02:37:42.524Z,3.00
2023-01-04T02:40:17.514Z,7.90
2023-01-04T02:43:15.679Z,6.33
2023-01-04T02:45:47.110Z,3.10
2023-01-04T02:48:45.553Z,5.50
2023-01-04T02:51:28.820Z,4.23
2023-01-04T02:53:57.930Z,5.13
2023-01-04T02:56:36.381Z,9.60
2023-01-04T02:59:15.983Z,5.90
2023-01-04T03:02:06.739Z,5.87
2023-01-04T03:05:11.920Z,6.30
2023-01-04T03:07:45.654Z,10.67
2023-01-04T03:10:17.355Z,7.20
2023-01-04T03:12:46.856Z,5.60
2023-01-04T03:15:18.150Z,8.70
2023-01-04T03:17:49.313Z,5.77
2023-01-04T03:20:19.944Z,4.77
2023-01-04T03:23:09.781Z,6.47
2023-01-04T03:25:59.745Z,3.13
2023-01-04T03:28:46.986Z,5.23
2023-01-04T03:31:37.848Z,5.43
2023-01-04T03:34:23.677Z,8.13
2023-01-04T03:37:01.158Z,6.10
2023-01-04T03:39:55.427Z,9.30
2023-01-04T03:42:46.910Z,4.43
2023-01-04T03:45:35.371Z,4.07
2023-01-04T03:48:26.700Z,8.00
2023-01-04T03:51:00.794Z,3.43
2023-01-04T03:53:30.122Z,9.63
2023-01-04T03:55:59.951Z,6.23
2023-01-04T03:58:27.978Z,6.23
2023-01-04T04:01:03.980Z,7.73
2023-01-04T04:03:49.805Z,3.87
2023-01-04T04:06:35.012Z,10.17
2023-01-04T04:09:04.950Z,3.07
2023-01-04T04:11:33.461Z,3.90
2023-01-04T04:14:01.231Z,2.63
2023-01-04T04:16:29.540Z,8.53
2023-01-04T04:18:57.259Z,4.70
2023-01-04T04:21:24.904Z,5.93
2023-01-04T04:23:52.732Z,6.57
2023-01-04T04:26:21.825Z,6.37
2023-01-04T04:28:49.613Z,11.50
2023-01-04T04:31:17.223Z,5.70
2023-01-04T04:33:44.812Z,6.53
2023-01-04T04:36:12.627Z,7.17
2023-01-04T04:38:40.165Z,7.57
2023-01-04T04:41:26.909Z,5.63
2023-01-04T04:43:56.395Z,5.30
2023-01-04T04:46:24.265Z,7.03
2023-01-04T04:48:52.412Z,6.20
2023-01-04T04:51:21.154Z,12.63
2023-01-04T04:53:49.751Z,5.03
2023-01-04T04:56:17.692Z,9.23
2023-01-04T04:58:45.245Z,6.33
2023-01-04T05:01:14.617Z,6.97
2023-01-04T05:03:42.385Z,6.40
2023-01-04T05:06:10.134Z,7.67
2023-01-04T05:08:37.739Z,7.10
2023-01-04T05:11:06.527Z,2.57
2023-01-04T05:13:33.389Z,5.40
2023-01-04T05:16:01.004Z,9.33
2023-01-04T05:18:29.954Z,4.90
2023-01-04T05:20:57.706Z,12.27
2023-01-04T05:23:25.544Z,12.47
2023-01-04T05:25:54.569Z,11.47
2023-01-04T05:28:22.388Z,7.73
2023-01-04T05:30:53.263Z,4.60
2023-01-04T05:33:21.780Z,3.03
2023-01-04T05:35:51.131Z,10.50
2023-01-04T05:38:19.528Z,4.13
2023-01-04T05:40:47.304Z,8.93
2023-01-04T05:43:15.515Z,6.37
2023-01-04T05:45:44.752Z,7.33
2023-01-04T05:48:12.425Z,9.33
2023-01-04T05:50:40.028Z,8.03
2023-01-04T05:53:12.802Z,3.47
2023-01-04T05:55:40.740Z,2.97
2023-01-04T05:58:08.353Z,9.37
2023-01-04T06:00:35.936Z,5.57
2023-01-04T06:03:03.727Z,5.47
2023-01-04T06:05:31.368Z,5.73
2023-01-04T06:07:58.909Z,4.70
2023-01-04T06:10:27.838Z,7.20
2023-01-04T06:12:55.386Z,3.37
2023-01-04T06:15:23.023Z,7.60
2023-01-04T06:17:50.610Z,5.60
2023-01-04T06:20:18.210Z,5.13
2023-01-04T06:22:45.798Z,4.27
2023-01-04T06:25:13.707Z,3.63
2023-01-04T06:27:42.620Z,9.20
2023-01-04T06:30:10.979Z,4.63
2023-01-04T06:32:38.560Z,1.70
2023-01-04T06:35:06.766Z,3.90
2023-01-04T06:37:35.600Z,3.10
2023-01-04T06:40:03.376Z,3.57
2023-01-04T06:42:46.315Z,3.20
2023-01-04T06:45:16.195Z,4.50
2023-01-04T06:47:44.511Z,4.23
2023-01-04T06:50:12.825Z,2.83
2023-01-04T06:52:40.538Z,18.47
2023-01-04T06:55:09.332Z,4.83
2023-01-04T06:57:37.096Z,3.93
2023-01-04T07:00:05.780Z,5.57
2023-01-04T07:02:35.067Z,3.17
2023-01-04T07:05:02.822Z,4.10
2023-01-04T07:07:30.657Z,2.53
2023-01-04T07:10:01.216Z,3.07
2023-01-04T07:12:31.353Z,2.47
2023-01-04T07:14:58.914Z,2.27
2023-01-04T07:17:29.870Z,3.77
2023-01-04T07:19:59.084Z,3.57
2023-01-04T07:22:26.670Z,5.47
2023-01-04T07:24:54.291Z,2.33
2023-01-04T07:27:23.794Z,3.10
2023-01-04T07:29:51.476Z,2.03
2023-01-04T07:32:19.018Z,3.60
2023-01-04T07:34:46.606Z,4.37
2023-01-04T07:37:17.315Z,2.57
2023-01-04T07:39:45.255Z,3.50
2023-01-04T07:42:12.867Z,3.60
2023-01-04T07:44:40.446Z,3.73
2023-01-04T07:47:08.028Z,3.47
2023-01-04T07:49:35.618Z,4.37
2023-01-04T07:52:03.211Z,3.50
2023-01-04T07:54:32.272Z,4.83
2023-01-04T07:56:59.870Z,5.67
2023-01-04T07:59:28.234Z,4.03
2023-01-04T08:01:59.767Z,7.70
2023-01-04T08:04:34.546Z,5.03
2023-01-04T08:07:24.709Z,4.20
2023-01-04T08:10:03.850Z,4.20
2023-01-04T08:12:38.387Z,5.00
2023-01-04T08:15:07.592Z,5.10
2023-01-04T08:17:38.612Z,4.90
2023-01-04T08:20:07.507Z,6.53
2023-01-04T08:22:35.564Z,4.47
2023-01-04T08:25:06.108Z,5.30
2023-01-04T08:27:36.572Z,5.00
2023-01-04T08:30:08.804Z,5.40
2023-01-04T08:32:39.785Z,5.80
2023-01-04T08:35:08.860Z,5.40
2023-01-04T08:37:36.662Z,5.40
2023-01-04T08:40:06.769Z,6.83
2023-01-04T08:42:34.721Z,8.33
2023-01-04T08:45:03.036Z,7.20
2023-01-04T08:47:31.624Z,5.73
2023-01-04T08:50:03.467Z,4.73
2023-01-04T08:52:37.837Z,5.20
2023-01-04T08:55:12.639Z,7.20
2023-01-04T08:57:41.803Z,4.70
2023-01-04T09:00:11.448Z,5.87
2023-01-04T09:02:39.663Z,4.30
2023-01-04T09:05:08.481Z,6.00
2023-01-04T09:07:39.635Z,4.80
2023-01-04T09:10:11.297Z,4.60
2023-01-04T09:13:04.855Z,3.80
2023-01-04T09:15:35.531Z,4.30
2023-01-04T09:21:23.255Z,6.33
2023-01-04T09:23:52.267Z,4.10
2023-01-04T09:26:36.360Z,3.37
2023-01-04T09:29:12.775Z,5.27
2023-01-04T09:31:42.027Z,4.80
2023-01-04T09:34:45.479Z,5.07
2023-01-04T09:37:16.146Z,4.07
2023-01-04T09:39:44.324Z,5.53
2023-01-04T09:42:19.018Z,7.00
2023-01-04T09:47:40.995Z,4.63
2023-01-04T09:50:14.114Z,5.53
2023-01-04T09:52:50.610Z,3.57
2023-01-04T09:55:37.691Z,3.40
2023-01-04T09:58:33.679Z,3.77
2023-01-04T10:01:07.164Z,7.60
2023-01-04T10:03:36.971Z,4.20
2023-01-04T10:06:05.593Z,4.70
2023-01-04T10:08:33.454Z,4.67
2023-01-04T10:11:11.763Z,4.97
2023-01-04T10:13:50.497Z,4.40
2023-01-04T10:16:44.634Z,4.27
2023-01-04T10:22:27.617Z,4.10
2023-01-04T10:26:13.747Z,3.30
2023-01-04T10:49:33.473Z,4.03
2023-01-04T10:52:03.801Z,2.97
2023-01-04T10:54:37.082Z,3.77
2023-01-04T10:57:40.152Z,2.73
2023-01-04T11:00:29.908Z,3.10
2023-01-04T11:03:08.408Z,2.40
2023-01-04T11:06:11.156Z,2.77
2023-01-04T11:09:03.152Z,5.37
2023-01-04T11:11:34.185Z,2.80
2023-01-04T11:14:16.494Z,4.50
2023-01-04T11:25:00.491Z,2.37
2023-01-04T11:27:31.348Z,2.90
2023-01-04T11:30:03.914Z,3.03
2023-01-04T11:32:36.051Z,3.67
2023-01-04T11:35:03.706Z,3.03
2023-01-04T11:37:34.300Z,3.67
2023-01-04T11:40:22.643Z,3.87
2023-01-04T11:42:51.839Z,2.87
2023-01-04T11:45:23.172Z,4.60
2023-01-04T11:47:52.780Z,3.80
2023-01-04T11:50:38.896Z,4.67
2023-01-04T11:53:27.817Z,3.97
2023-01-04T11:56:11.837Z,2.93
2023-01-04T11:58:39.587Z,2.40
2023-01-04T12:01:11.545Z,2.60
2023-01-04T12:03:40.430Z,3.03
2023-01-04T12:06:13.022Z,2.77
2023-01-04T12:08:42.444Z,2.20
2023-01-04T12:11:25.764Z,2.53
2023-01-04T12:13:53.544Z,1.97
2023-01-04T12:16:27.805Z,4.20
2023-01-04T12:18:55.588Z,3.77
2023-01-04T12:21:25.295Z,4.00
2023-01-04T12:23:54.310Z,1.90
2023-01-04T12:26:23.927Z,5.47
2023-01-04T12:28:58.276Z,2.57
2023-01-04T12:31:31.053Z,5.27
2023-01-04T12:34:00.211Z,1.80
2023-01-04T12:37:04.776Z,2.67
2023-01-04T12:39:47.305Z,5.50
2023-01-04T12:42:21.814Z,1.77
2023-01-04T12:45:15.418Z,2.30
2023-01-04T12:48:02.086Z,2.30
2023-01-04T12:50:32.040Z,2.47
2023-01-04T12:53:28.907Z,4.03
2023-01-04T12:55:56.409Z,2.10
2023-01-04T12:59:25.777Z,2.80
2023-01-04T13:02:18.862Z,6.80
2023-01-04T13:04:46.721Z,5.07
2023-01-04T13:07:18.416Z,5.57
2023-01-04T13:09:55.203Z,6.30
2023-01-04T13:12:48.513Z,4.13
2023-01-04T13:15:22.856Z,4.07
2023-01-04T13:17:52.133Z,3.40
2023-01-04T13:20:21.622Z,4.00
2023-01-04T13:22:52.606Z,3.20
2023-01-04T13:25:21.663Z,8.00
2023-01-04T13:27:59.194Z,3.23
2023-01-04T13:30:35.333Z,5.90
2023-01-04T13:33:28.050Z,3.20
2023-01-04T13:36:02.606Z,3.27
2023-01-04T13:38:31.555Z,5.50
2023-01-04T13:40:59.338Z,5.13
2023-01-04T13:43:42.632Z,8.97
2023-01-04T13:46:17.895Z,5.77
2023-01-04T13:48:49.018Z,4.23
2023-01-04T13:51:19.303Z,4.83
2023-01-04T13:53:54.439Z,8.40
2023-01-04T13:56:23.625Z,6.37
2023-01-04T13:58:54.338Z,5.77
2023-01-04T14:01:24.919Z,4.37
2023-01-04T14:03:55.926Z,4.20
2023-01-04T14:06:27.687Z,6.90
2023-01-04T14:08:59.315Z,12.20
2023-01-04T14:11:47.612Z,6.10
2023-01-04T14:14:34.169Z,3.90
2023-01-04T14:17:24.575Z,8.33
2023-01-04T14:19:55.585Z,6.87
2023-01-04T14:22:35.241Z,7.07
2023-01-04T14:25:40.601Z,7.37
2023-01-04T14:28:29.288Z,6.53
2023-01-04T14:31:12.497Z,7.80
2023-01-04T14:33:42.831Z,8.10
2023-01-04T14:36:15.144Z,7.90
2023-01-04T14:38:45.526Z,7.50
2023-01-04T14:41:20.306Z,5.10
2023-01-04T14:43:50.002Z,5.73
2023-01-04T14:46:17.976Z,6.77
2023-01-04T14:48:45.878Z,12.40
2023-01-04T14:51:17.336Z,11.23
2023-01-04T14:53:45.064Z,8.50
2023-01-04T14:56:14.576Z,22.17
2023-01-04T14:58:42.840Z,17.50
2023-01-04T15:01:11.630Z,19.67
2023-01-04T15:03:41.746Z,10.57
2023-01-04T15:06:11.025Z,18.20
2023-01-04T15:08:40.079Z,6.80
2023-01-04T15:11:09.962Z,12.47
2023-01-04T15:13:39.866Z,15.80
2023-01-04T15:16:08.739Z,11.00
2023-01-04T15:18:36.409Z,9.43
2023-01-04T15:21:04.814Z,8.30
2023-01-04T15:23:32.571Z,11.47
2023-01-04T15:26:01.779Z,13.47
2023-01-04T15:28:29.514Z,12.07
2023-01-04T15:30:57.155Z,12.60
2023-01-04T15:33:24.958Z,17.17
2023-01-04T15:35:59.229Z,7.33
2023-01-04T15:38:27.148Z,6.43
2023-01-04T15:41:02.748Z,6.93
2023-01-04T15:43:35.918Z,5.50
2023-01-04T15:46:07.448Z,10.33
2023-01-04T15:48:35.484Z,12.77
2023-01-04T15:51:04.714Z,13.63
2023-01-04T15:53:32.427Z,6.17
2023-01-04T15:56:09.390Z,11.33
2023-01-04T15:58:37.200Z,17.37
2023-01-04T16:01:09.746Z,9.20
2023-01-04T16:03:37.571Z,13.50
2023-01-04T16:06:06.924Z,13.40
2023-01-04T16:08:34.676Z,9.50
2023-01-04T16:11:11.086Z,13.13
2023-01-04T16:13:38.961Z,13.40
2023-01-04T16:16:07.792Z,17.57
2023-01-04T16:18:35.562Z,12.00
2023-01-04T16:21:06.510Z,18.63
2023-01-04T16:23:34.121Z,13.73
2023-01-04T16:26:10.480Z,13.70
2023-01-04T16:28:38.386Z,11.70
2023-01-04T16:31:06.634Z,9.63
2023-01-04T16:33:35.447Z,14.07
2023-01-04T16:36:04.910Z,9.10
2023-01-04T16:38:32.851Z,10.90
2023-01-04T16:41:02.227Z,7.80
2023-01-04T16:43:31.868Z,16.43
2023-01-04T16:46:17.463Z,4.97
2023-01-04T16:48:46.680Z,12.90
2023-01-04T16:51:14.501Z,17.73
2023-01-04T16:53:42.106Z,10.27
2023-01-04T16:56:11.476Z,11.63
2023-01-04T16:58:43.757Z,8.90
2023-01-04T17:01:13.762Z,17.07
2023-01-04T17:03:42.151Z,12.37
2023-01-04T17:06:11.954Z,9.23
2023-01-04T17:08:39.853Z,13.73
2023-01-04T17:11:51.263Z,12.87
2023-01-04T17:13:57.909Z,12.20
2023-01-04T17:16:30.993Z,9.70
2023-01-04T17:19:02.051Z,9.73
2023-01-04T17:21:35.277Z,18.10
2023-01-04T17:24:03.523Z,13.23
2023-01-04T17:26:32.796Z,9.50
2023-01-04T17:29:02.429Z,9.20
2023-01-04T17:31:32.139Z,7.70
2023-01-04T17:34:00.015Z,13.27
2023-01-04T17:36:27.624Z,13.30
2023-01-04T17:38:55.463Z,12.80
2023-01-04T17:41:24.401Z,9.13
2023-01-04T17:43:53.860Z,19.57
2023-01-04T17:46:24.584Z,18.03
2023-01-04T17:49:20.647Z,16.60
2023-01-04T17:51:40.735Z,15.80
2023-01-04T17:54:10.900Z,15.37
2023-01-04T17:56:38.612Z,15.53
2023-01-04T17:59:07.573Z,16.80
2023-01-04T18:01:37.178Z,17.60
2023-01-04T18:04:04.980Z,17.73
2023-01-04T18:06:34.692Z,11.50
2023-01-04T18:09:03.704Z,16.17
2023-01-04T18:11:31.614Z,18.80
2023-01-04T18:13:59.237Z,15.67
2023-01-04T18:16:28.752Z,19.03
2023-01-04T18:18:59.289Z,17.73
2023-01-04T18:21:30.607Z,15.10
2023-01-04T18:27:19.865Z,21.40
2023-01-04T18:29:35.260Z,20.43
2023-01-04T18:32:03.338Z,13.70
2023-01-04T18:34:32.504Z,18.47
2023-01-04T18:37:00.177Z,10.60
2023-01-04T18:39:28.059Z,6.70
2023-01-04T18:41:55.756Z,24.93
2023-01-04T18:44:45.722Z,17.17
2023-01-04T18:47:11.203Z,13.83
2023-01-04T18:49:40.419Z,19.97
2023-01-04T18:52:08.080Z,19.00
2023-01-04T18:54:35.715Z,14.50
2023-01-04T18:57:03.601Z,11.83
2023-01-04T18:59:31.275Z,12.33
2023-01-04T19:02:01.527Z,20.50
2023-01-04T19:04:30.707Z,16.03
2023-01-04T19:06:59.728Z,18.23
2023-01-04T19:09:27.501Z,17.03
2023-01-04T19:11:55.128Z,24.23
2023-01-04T19:14:22.958Z,24.37
2023-01-04T19:16:52.567Z,15.27
2023-01-04T19:19:20.320Z,21.10
2023-01-04T19:21:48.053Z,17.43
2023-01-04T19:24:17.079Z,17.43
2023-01-04T19:26:44.815Z,14.60
2023-01-04T19:29:12.775Z,12.73
2023-01-04T19:31:40.441Z,18.37
2023-01-04T19:34:09.859Z,19.30
2023-01-04T19:36:37.837Z,17.23
2023-01-04T19:39:09.140Z,18.60
2023-01-04T19:41:38.486Z,17.57
2023-01-04T19:44:08.042Z,18.70
2023-01-04T19:46:37.974Z,14.63
2023-01-04T19:49:10.673Z,17.83
2023-01-04T19:51:43.769Z,16.53
2023-01-04T19:54:11.537Z,14.37
2023-01-04T19:56:40.897Z,14.33
2023-01-04T19:59:08.609Z,19.07
2023-01-04T20:01:37.027Z,16.97
2023-01-04T20:04:05.375Z,13.07
2023-01-04T20:06:33.783Z,15.77
2023-01-04T20:09:01.511Z,20.33
2023-01-04T20:11:29.350Z,19.03
2023-01-04T20:13:58.410Z,17.50
2023-01-04T20:16:26.246Z,18.67
2023-01-04T20:18:55.806Z,17.47
2023-01-04T20:21:23.600Z,14.30
2023-01-04T20:23:51.377Z,15.53
2023-01-04T20:26:19.715Z,16.90
2023-01-04T20:28:48.560Z,20.67
2023-01-04T20:31:19.592Z,15.80
2023-01-04T20:33:48.543Z,9.73
2023-01-04T20:36:17.654Z,11.03
2023-01-04T20:38:46.957Z,10.43
2023-01-04T20:41:17.146Z,12.00
2023-01-04T20:43:44.476Z,9.53
2023-01-04T20:46:14.091Z,10.80
2023-01-04T20:48:43.297Z,8.47
2023-01-04T20:51:14.551Z,8.27
2023-01-04T20:53:42.537Z,8.40
2023-01-04T20:56:14.906Z,12.90
2023-01-04T20:58:42.952Z,11.40
2023-01-04T21:01:12.743Z,9.10
2023-01-04T21:03:40.609Z,9.90
2023-01-04T21:06:11.612Z,12.03
2023-01-04T21:08:40.359Z,8.37
2023-01-04T21:11:08.843Z,11.10
2023-01-04T21:13:36.616Z,14.20
2023-01-04T21:16:05.120Z,7.57
2023-01-04T21:18:33.879Z,9.20
2023-01-04T21:21:06.072Z,10.33
2023-01-04T21:23:35.286Z,9.97
2023-01-04T21:26:06.702Z,16.20
2023-01-04T21:28:34.381Z,15.03
2023-01-04T21:31:02.274Z,23.23
2023-01-04T21:33:30.396Z,9.67
2023-01-04T21:35:58.102Z,16.13
2023-01-04T21:38:25.899Z,12.83
2023-01-04T21:40:54.863Z,20.43
2023-01-04T21:43:22.483Z,16.90
2023-01-04T21:45:50.181Z,25.73
2023-01-04T21:48:17.818Z,14.23
2023-01-04T21:50:45.473Z,23.40
2023-01-04T21:53:13.218Z,24.97
2023-01-04T21:55:41.067Z,17.20
2023-01-04T21:58:09.992Z,18.43
2023-01-04T22:00:37.898Z,23.53
2023-01-04T22:03:05.646Z,18.00
2023-01-04T22:05:33.477Z,14.80
2023-01-04T22:08:01.267Z,12.93
2023-01-04T22:10:28.926Z,20.40
2023-01-04T22:12:56.568Z,15.20
2023-01-04T22:15:25.819Z,19.40
2023-01-04T22:17:53.578Z,17.80
2023-01-04T22:20:21.364Z,13.40
2023-01-04T22:22:49.043Z,21.90
2023-01-04T22:25:17.083Z,14.63
2023-01-04T22:27:45.422Z,14.00
2023-01-04T22:30:13.920Z,14.20
2023-01-04T22:32:42.938Z,20.97
2023-01-04T22:35:11.056Z,20.30
2023-01-04T22:37:38.760Z,15.63
2023-01-04T22:40:07.731Z,27.40
2023-01-04T22:42:35.364Z,20.50
2023-01-04T22:45:07.969Z,15.70
2023-01-04T22:47:38.831Z,13.53
2023-01-04T22:50:08.749Z,19.23
2023-01-04T22:52:36.406Z,14.67
2023-01-04T22:55:04.209Z,22.40
2023-01-04T22:57:31.902Z,14.43
2023-01-04T22:59:59.856Z,19.50
2023-01-04T23:02:27.495Z,26.40
2023-01-04T23:04:55.330Z,13.10
2023-01-04T23:07:24.281Z,24.60
2023-01-04T23:09:51.910Z,18.60
2023-01-04T23:12:19.539Z,9.70
2023-01-04T23:14:47.349Z,16.23
2023-01-04T23:17:15.000Z,16.67
2023-01-04T23:19:42.721Z,14.80
2023-01-04T23:22:10.398Z,18.57
2023-01-04T23:24:39.649Z,16.17
2023-01-04T23:27:07.447Z,19.67
2023-01-04T23:29:35.123Z,13.60
2023-01-04T23:32:02.807Z,7.00
2023-01-04T23:34:30.775Z,16.20
2023-01-04T23:36:58.432Z,16.87
2023-01-04T23:39:26.249Z,18.67
2023-01-04T23:41:55.316Z,19.43
2023-01-04T23:44:24.618Z,16.23
2023-01-04T23:46:55.196Z,15.63
2023-01-04T23:49:23.565Z,27.07
2023-01-04T23:51:51.617Z,14.63
2023-01-04T23:54:19.741Z,16.10
2023-01-04T23:56:47.620Z,13.23
2023-01-04T23:59:16.648Z,25.50
